sensor_id;sensor_type;location;lat;lon;timestamp;P1;durP1;ratioP1;P2;durP2;ratioP2
16845;SDS011;8539;53.188;8.696;2023-06-22T00:01:47;12.80;;;11.57;;
16845;SDS011;8539;53.188;8.696;2023-06-22T00:04:16;14.82;;;12.13;;
16845;SDS011;8539;53.188;8.696;2023-06-22T00:06:42;13.93;;;12.45;;
16845;SDS011;8539;53.188;8.696;2023-06-22T00:09:08;13.95;;;11.32;;
16845;SDS011;8539;53.188;8.696;2023-06-22T00:11:36;13.07;;;11.05;;
16845;SDS011;8539;53.188;8.696;2023-06-22T00:14:04;13.02;;;11.65;;
16845;SDS011;8539;53.188;8.696;2023-06-22T00:16:35;13.85;;;10.32;;
16845;SDS011;8539;53.188;8.696;2023-06-22T00:21:36;13.77;;;11.32;;
16845;SDS011;8539;53.188;8.696;2023-06-22T00:24:48;12.10;;;10.90;;
16845;SDS011;8539;53.188;8.696;2023-06-22T00:27:20;12.80;;;11.50;;
16845;SDS011;8539;53.188;8.696;2023-06-22T00:29:48;13.10;;;11.23;;
16845;SDS011;8539;53.188;8.696;2023-06-22T00:32:14;14.70;;;12.27;;
16845;SDS011;8539;53.188;8.696;2023-06-22T00:34:44;15.77;;;12.07;;
16845;SDS011;8539;53.188;8.696;2023-06-22T00:37:10;12.65;;;11.23;;
16845;SDS011;8539;53.188;8.696;2023-06-22T00:39:48;14.02;;;12.55;;
16845;SDS011;8539;53.188;8.696;2023-06-22T00:42:17;13.02;;;11.68;;
16845;SDS011;8539;53.188;8.696;2023-06-22T00:44:55;14.93;;;12.38;;
16845;SDS011;8539;53.188;8.696;2023-06-22T00:47:38;17.58;;;13.38;;
16845;SDS011;8539;53.188;8.696;2023-06-22T00:50:10;17.52;;;14.05;;
16845;SDS011;8539;53.188;8.696;2023-06-22T00:53:38;16.30;;;14.30;;
16845;SDS011;8539;53.188;8.696;2023-06-22T00:57:06;15.48;;;13.93;;
16845;SDS011;8539;53.188;8.696;2023-06-22T00:59:48;16.00;;;13.70;;
16845;SDS011;8539;53.188;8.696;2023-06-22T01:02:26;17.20;;;14.30;;
16845;SDS011;8539;53.188;8.696;2023-06-22T01:05:25;14.45;;;12.95;;
16845;SDS011;8539;53.188;8.696;2023-06-22T01:11:41;19.63;;;14.05;;
16845;SDS011;8539;53.188;8.696;2023-06-22T01:14:23;15.73;;;14.15;;
16845;SDS011;8539;53.188;8.696;2023-06-22T01:17:44;18.23;;;14.20;;
16845;SDS011;8539;53.188;8.696;2023-06-22T01:20:41;15.10;;;13.60;;
16845;SDS011;8539;53.188;8.696;2023-06-22T01:26:21;16.35;;;14.70;;
16845;SDS011;8539;53.188;8.696;2023-06-22T01:29:03;21.23;;;15.30;;
16845;SDS011;8539;53.188;8.696;2023-06-22T01:31:31;19.88;;;15.63;;
16845;SDS011;8539;53.188;8.696;2023-06-22T01:34:05;17.23;;;14.57;;
16845;SDS011;8539;53.188;8.696;2023-06-22T01:36:33;18.80;;;15.25;;
16845;SDS011;8539;53.188;8.696;2023-06-22T01:39:10;20.13;;;14.40;;
16845;SDS011;8539;53.188;8.696;2023-06-22T01:41:38;16.38;;;14.70;;
16845;SDS011;8539;53.188;8.696;2023-06-22T01:44:10;16.83;;;13.77;;
16845;SDS011;8539;53.188;8.696;2023-06-22T01:46:42;18.33;;;14.23;;
16845;SDS011;8539;53.188;8.696;2023-06-22T01:49:12;16.95;;;14.93;;
16845;SDS011;8539;53.188;8.696;2023-06-22T01:51:40;19.60;;;15.25;;
16845;SDS011;8539;53.188;8.696;2023-06-22T01:54:09;19.67;;;16.10;;
16845;SDS011;8539;53.188;8.696;2023-06-22T01:56:35;15.50;;;13.73;;
16845;SDS011;8539;53.188;8.696;2023-06-22T02:02:07;16.02;;;13.00;;
16845;SDS011;8539;53.188;8.696;2023-06-22T02:05:21;16.13;;;13.32;;
16845;SDS011;8539;53.188;8.696;2023-06-22T02:08:19;15.02;;;13.43;;
16845;SDS011;8539;53.188;8.696;2023-06-22T02:10:56;16.20;;;14.57;;
16845;SDS011;8539;53.188;8.696;2023-06-22T02:14:05;16.02;;;14.43;;
16845;SDS011;8539;53.188;8.696;2023-06-22T02:20:49;16.05;;;13.85;;
16845;SDS011;8539;53.188;8.696;2023-06-22T02:38:37;20.20;;;16.02;;
16845;SDS011;8539;53.188;8.696;2023-06-22T02:41:39;19.33;;;17.10;;
16845;SDS011;8539;53.188;8.696;2023-06-22T02:44:57;17.00;;;15.13;;
16845;SDS011;8539;53.188;8.696;2023-06-22T02:50:29;17.25;;;14.10;;
16845;SDS011;8539;53.188;8.696;2023-06-22T02:52:55;18.63;;;14.77;;
16845;SDS011;8539;53.188;8.696;2023-06-22T02:55:21;19.02;;;16.38;;
16845;SDS011;8539;53.188;8.696;2023-06-22T02:57:48;19.52;;;15.65;;
16845;SDS011;8539;53.188;8.696;2023-06-22T03:00:18;17.75;;;14.52;;
16845;SDS011;8539;53.188;8.696;2023-06-22T03:02:48;15.63;;;14.00;;
16845;SDS011;8539;53.188;8.696;2023-06-22T03:05:15;19.33;;;15.57;;
16845;SDS011;8539;53.188;8.696;2023-06-22T03:07:43;15.43;;;13.60;;
16845;SDS011;8539;53.188;8.696;2023-06-22T03:10:11;16.25;;;14.55;;
16845;SDS011;8539;53.188;8.696;2023-06-22T03:12:39;17.15;;;14.23;;
16845;SDS011;8539;53.188;8.696;2023-06-22T03:15:06;18.50;;;14.82;;
16845;SDS011;8539;53.188;8.696;2023-06-22T03:17:34;15.77;;;14.00;;
16845;SDS011;8539;53.188;8.696;2023-06-22T03:20:01;20.20;;;13.68;;
16845;SDS011;8539;53.188;8.696;2023-06-22T03:22:34;17.45;;;14.93;;
16845;SDS011;8539;53.188;8.696;2023-06-22T03:25:01;15.90;;;14.30;;
16845;SDS011;8539;53.188;8.696;2023-06-22T03:27:27;17.55;;;15.68;;
16845;SDS011;8539;53.188;8.696;2023-06-22T03:29:53;17.77;;;14.60;;
16845;SDS011;8539;53.188;8.696;2023-06-22T03:32:19;19.10;;;15.18;;
16845;SDS011;8539;53.188;8.696;2023-06-22T03:34:46;22.23;;;15.13;;
16845;SDS011;8539;53.188;8.696;2023-06-22T03:37:16;16.15;;;13.68;;
16845;SDS011;8539;53.188;8.696;2023-06-22T03:39:43;18.10;;;14.77;;
16845;SDS011;8539;53.188;8.696;2023-06-22T03:42:09;16.25;;;13.93;;
16845;SDS011;8539;53.188;8.696;2023-06-22T03:44:35;17.75;;;14.63;;
16845;SDS011;8539;53.188;8.696;2023-06-22T03:47:02;17.58;;;15.07;;
16845;SDS011;8539;53.188;8.696;2023-06-22T03:49:29;18.80;;;16.10;;
16845;SDS011;8539;53.188;8.696;2023-06-22T03:54:36;18.20;;;15.48;;
16845;SDS011;8539;53.188;8.696;2023-06-22T04:04:35;17.80;;;15.90;;
16845;SDS011;8539;53.188;8.696;2023-06-22T04:07:27;20.15;;;15.65;;
16845;SDS011;8539;53.188;8.696;2023-06-22T04:09:54;17.88;;;15.98;;
16845;SDS011;8539;53.188;8.696;2023-06-22T04:12:43;16.23;;;14.43;;
16845;SDS011;8539;53.188;8.696;2023-06-22T04:15:40;17.23;;;14.68;;
16845;SDS011;8539;53.188;8.696;2023-06-22T04:18:42;16.85;;;14.38;;
16845;SDS011;8539;53.188;8.696;2023-06-22T04:21:13;20.25;;;15.07;;
16845;SDS011;8539;53.188;8.696;2023-06-22T04:23:51;21.75;;;18.80;;
16845;SDS011;8539;53.188;8.696;2023-06-22T04:26:20;19.58;;;15.65;;
16845;SDS011;8539;53.188;8.696;2023-06-22T04:28:47;19.75;;;17.65;;
16845;SDS011;8539;53.188;8.696;2023-06-22T04:31:17;20.10;;;16.17;;
16845;SDS011;8539;53.188;8.696;2023-06-22T04:33:54;19.63;;;15.98;;
16845;SDS011;8539;53.188;8.696;2023-06-22T04:43:27;22.35;;;16.17;;
16845;SDS011;8539;53.188;8.696;2023-06-22T04:45:57;18.63;;;15.60;;
16845;SDS011;8539;53.188;8.696;2023-06-22T04:48:31;15.60;;;13.20;;
16845;SDS011;8539;53.188;8.696;2023-06-22T04:50:58;17.58;;;14.00;;
16845;SDS011;8539;53.188;8.696;2023-06-22T04:53:29;17.13;;;12.75;;
16845;SDS011;8539;53.188;8.696;2023-06-22T04:55:56;15.77;;;13.05;;
16845;SDS011;8539;53.188;8.696;2023-06-22T04:58:23;15.55;;;13.80;;
16845;SDS011;8539;53.188;8.696;2023-06-22T05:00:52;15.23;;;13.57;;
16845;SDS011;8539;53.188;8.696;2023-06-22T05:06:26;16.00;;;13.57;;
16845;SDS011;8539;53.188;8.696;2023-06-22T05:08:53;15.07;;;11.73;;
16845;SDS011;8539;53.188;8.696;2023-06-22T05:11:26;15.20;;;9.75;;
16845;SDS011;8539;53.188;8.696;2023-06-22T05:13:54;12.98;;;11.57;;
16845;SDS011;8539;53.188;8.696;2023-06-22T05:16:21;15.73;;;11.25;;
16845;SDS011;8539;53.188;8.696;2023-06-22T05:21:30;17.50;;;12.75;;
16845;SDS011;8539;53.188;8.696;2023-06-22T05:24:00;14.50;;;11.80;;
16845;SDS011;8539;53.188;8.696;2023-06-22T05:26:28;13.90;;;11.40;;
16845;SDS011;8539;53.188;8.696;2023-06-22T05:28:56;12.18;;;10.57;;
16845;SDS011;8539;53.188;8.696;2023-06-22T05:31:23;14.15;;;11.70;;
16845;SDS011;8539;53.188;8.696;2023-06-22T05:33:51;16.30;;;13.23;;
16845;SDS011;8539;53.188;8.696;2023-06-22T05:36:18;15.95;;;14.05;;
16845;SDS011;8539;53.188;8.696;2023-06-22T05:38:51;18.05;;;14.90;;
16845;SDS011;8539;53.188;8.696;2023-06-22T05:41:17;15.77;;;13.20;;
16845;SDS011;8539;53.188;8.696;2023-06-22T05:43:43;19.35;;;14.93;;
16845;SDS011;8539;53.188;8.696;2023-06-22T05:46:10;18.13;;;14.88;;
16845;SDS011;8539;53.188;8.696;2023-06-22T05:48:36;20.15;;;15.70;;
16845;SDS011;8539;53.188;8.696;2023-06-22T05:51:02;19.48;;;16.08;;
16845;SDS011;8539;53.188;8.696;2023-06-22T05:53:28;20.02;;;14.77;;
16845;SDS011;8539;53.188;8.696;2023-06-22T05:55:54;18.80;;;14.45;;
16845;SDS011;8539;53.188;8.696;2023-06-22T05:58:20;18.88;;;13.18;;
16845;SDS011;8539;53.188;8.696;2023-06-22T06:00:46;23.13;;;15.95;;
16845;SDS011;8539;53.188;8.696;2023-06-22T06:03:13;28.23;;;17.90;;
16845;SDS011;8539;53.188;8.696;2023-06-22T06:05:42;21.42;;;16.13;;
16845;SDS011;8539;53.188;8.696;2023-06-22T06:08:10;20.92;;;15.13;;
16845;SDS011;8539;53.188;8.696;2023-06-22T06:10:36;20.52;;;13.38;;
16845;SDS011;8539;53.188;8.696;2023-06-22T06:13:02;22.80;;;16.35;;
16845;SDS011;8539;53.188;8.696;2023-06-22T06:15:30;17.55;;;13.70;;
16845;SDS011;8539;53.188;8.696;2023-06-22T06:17:57;25.42;;;19.00;;
16845;SDS011;8539;53.188;8.696;2023-06-22T06:20:24;19.45;;;16.35;;
16845;SDS011;8539;53.188;8.696;2023-06-22T06:22:56;22.48;;;17.70;;
16845;SDS011;8539;53.188;8.696;2023-06-22T06:25:22;25.17;;;18.60;;
16845;SDS011;8539;53.188;8.696;2023-06-22T06:27:50;21.40;;;16.70;;
16845;SDS011;8539;53.188;8.696;2023-06-22T06:30:17;22.65;;;15.57;;
16845;SDS011;8539;53.188;8.696;2023-06-22T06:32:44;23.88;;;16.95;;
16845;SDS011;8539;53.188;8.696;2023-06-22T06:35:11;20.75;;;15.27;;
16845;SDS011;8539;53.188;8.696;2023-06-22T06:37:39;15.55;;;11.38;;
16845;SDS011;8539;53.188;8.696;2023-06-22T06:40:07;15.50;;;11.60;;
16845;SDS011;8539;53.188;8.696;2023-06-22T06:42:37;12.63;;;10.10;;
16845;SDS011;8539;53.188;8.696;2023-06-22T06:45:10;14.20;;;10.05;;
16845;SDS011;8539;53.188;8.696;2023-06-22T06:47:44;14.85;;;10.48;;
16845;SDS011;8539;53.188;8.696;2023-06-22T06:50:10;13.52;;;10.15;;
16845;SDS011;8539;53.188;8.696;2023-06-22T06:52:37;13.10;;;8.82;;
16845;SDS011;8539;53.188;8.696;2023-06-22T06:55:04;9.68;;;6.85;;
16845;SDS011;8539;53.188;8.696;2023-06-22T06:57:33;13.00;;;7.75;;
16845;SDS011;8539;53.188;8.696;2023-06-22T06:59:59;8.82;;;7.18;;
16845;SDS011;8539;53.188;8.696;2023-06-22T07:02:26;11.95;;;8.63;;
16845;SDS011;8539;53.188;8.696;2023-06-22T07:04:55;10.77;;;8.23;;
16845;SDS011;8539;53.188;8.696;2023-06-22T07:07:21;10.45;;;6.55;;
16845;SDS011;8539;53.188;8.696;2023-06-22T07:09:48;11.00;;;8.13;;
16845;SDS011;8539;53.188;8.696;2023-06-22T07:12:14;10.55;;;7.80;;
16845;SDS011;8539;53.188;8.696;2023-06-22T07:14:40;9.70;;;6.70;;
16845;SDS011;8539;53.188;8.696;2023-06-22T07:17:07;7.93;;;6.35;;
16845;SDS011;8539;53.188;8.696;2023-06-22T07:19:33;9.98;;;7.50;;
16845;SDS011;8539;53.188;8.696;2023-06-22T07:21:59;12.98;;;6.68;;
16845;SDS011;8539;53.188;8.696;2023-06-22T07:24:25;11.60;;;5.95;;
16845;SDS011;8539;53.188;8.696;2023-06-22T07:26:51;7.55;;;6.43;;
16845;SDS011;8539;53.188;8.696;2023-06-22T07:29:17;6.90;;;6.20;;
16845;SDS011;8539;53.188;8.696;2023-06-22T07:31:44;9.13;;;6.93;;
16845;SDS011;8539;53.188;8.696;2023-06-22T07:34:10;8.98;;;5.95;;
16845;SDS011;8539;53.188;8.696;2023-06-22T07:36:36;6.03;;;5.35;;
16845;SDS011;8539;53.188;8.696;2023-06-22T07:39:02;7.03;;;5.70;;
16845;SDS011;8539;53.188;8.696;2023-06-22T07:41:29;5.90;;;5.03;;
16845;SDS011;8539;53.188;8.696;2023-06-22T07:43:55;6.53;;;5.72;;
16845;SDS011;8539;53.188;8.696;2023-06-22T07:46:22;6.78;;;5.03;;
16845;SDS011;8539;53.188;8.696;2023-06-22T07:48:48;6.78;;;5.07;;
16845;SDS011;8539;53.188;8.696;2023-06-22T07:51:14;8.68;;;5.43;;
16845;SDS011;8539;53.188;8.696;2023-06-22T07:53:41;10.05;;;6.35;;
16845;SDS011;8539;53.188;8.696;2023-06-22T07:56:11;7.55;;;5.38;;
16845;SDS011;8539;53.188;8.696;2023-06-22T07:58:37;7.28;;;5.50;;
16845;SDS011;8539;53.188;8.696;2023-06-22T08:01:03;6.45;;;4.47;;
16845;SDS011;8539;53.188;8.696;2023-06-22T08:03:29;4.68;;;3.83;;
16845;SDS011;8539;53.188;8.696;2023-06-22T08:05:55;7.65;;;5.82;;
16845;SDS011;8539;53.188;8.696;2023-06-22T08:08:21;5.55;;;4.15;;
16845;SDS011;8539;53.188;8.696;2023-06-22T08:10:47;4.50;;;3.95;;
16845;SDS011;8539;53.188;8.696;2023-06-22T08:13:14;8.45;;;5.25;;
16845;SDS011;8539;53.188;8.696;2023-06-22T08:15:41;5.65;;;4.53;;
16845;SDS011;8539;53.188;8.696;2023-06-22T08:18:07;6.88;;;4.97;;
16845;SDS011;8539;53.188;8.696;2023-06-22T08:20:36;5.57;;;4.80;;
16845;SDS011;8539;53.188;8.696;2023-06-22T08:23:02;7.05;;;4.55;;
16845;SDS011;8539;53.188;8.696;2023-06-22T08:25:32;6.07;;;5.30;;
16845;SDS011;8539;53.188;8.696;2023-06-22T08:27:59;5.15;;;3.92;;
16845;SDS011;8539;53.188;8.696;2023-06-22T08:30:26;5.88;;;4.15;;
16845;SDS011;8539;53.188;8.696;2023-06-22T08:32:52;7.30;;;4.85;;
16845;SDS011;8539;53.188;8.696;2023-06-22T08:35:21;9.85;;;4.95;;
16845;SDS011;8539;53.188;8.696;2023-06-22T08:37:49;5.47;;;4.90;;
16845;SDS011;8539;53.188;8.696;2023-06-22T08:40:18;8.00;;;5.35;;
16845;SDS011;8539;53.188;8.696;2023-06-22T08:42:48;5.57;;;4.40;;
16845;SDS011;8539;53.188;8.696;2023-06-22T08:45:14;6.05;;;5.15;;
16845;SDS011;8539;53.188;8.696;2023-06-22T08:47:41;6.50;;;5.07;;
16845;SDS011;8539;53.188;8.696;2023-06-22T08:50:08;7.43;;;5.47;;
16845;SDS011;8539;53.188;8.696;2023-06-22T08:52:35;7.88;;;5.00;;
16845;SDS011;8539;53.188;8.696;2023-06-22T08:55:05;8.50;;;5.40;;
16845;SDS011;8539;53.188;8.696;2023-06-22T08:57:55;7.10;;;4.70;;
16845;SDS011;8539;53.188;8.696;2023-06-22T09:00:21;9.30;;;5.57;;
16845;SDS011;8539;53.188;8.696;2023-06-22T09:02:49;8.98;;;5.85;;
16845;SDS011;8539;53.188;8.696;2023-06-22T09:05:15;6.88;;;5.05;;
16845;SDS011;8539;53.188;8.696;2023-06-22T09:07:50;8.90;;;4.53;;
16845;SDS011;8539;53.188;8.696;2023-06-22T09:10:16;5.28;;;4.68;;
16845;SDS011;8539;53.188;8.696;2023-06-22T09:12:46;10.43;;;5.72;;
16845;SDS011;8539;53.188;8.696;2023-06-22T09:15:12;7.78;;;5.25;;
16845;SDS011;8539;53.188;8.696;2023-06-22T09:17:40;9.18;;;5.97;;
16845;SDS011;8539;53.188;8.696;2023-06-22T09:20:06;6.40;;;5.80;;
16845;SDS011;8539;53.188;8.696;2023-06-22T09:22:36;8.27;;;5.55;;
16845;SDS011;8539;53.188;8.696;2023-06-22T09:25:07;7.03;;;4.40;;
16845;SDS011;8539;53.188;8.696;2023-06-22T09:27:33;6.20;;;4.70;;
16845;SDS011;8539;53.188;8.696;2023-06-22T09:29:59;5.72;;;4.15;;
16845;SDS011;8539;53.188;8.696;2023-06-22T09:32:25;4.93;;;4.40;;
16845;SDS011;8539;53.188;8.696;2023-06-22T09:34:55;4.30;;;3.90;;
16845;SDS011;8539;53.188;8.696;2023-06-22T09:37:24;5.05;;;4.45;;
16845;SDS011;8539;53.188;8.696;2023-06-22T09:39:50;7.68;;;4.90;;
16845;SDS011;8539;53.188;8.696;2023-06-22T09:42:17;7.72;;;4.50;;
16845;SDS011;8539;53.188;8.696;2023-06-22T09:44:43;7.40;;;5.00;;
16845;SDS011;8539;53.188;8.696;2023-06-22T09:47:09;8.55;;;4.78;;
16845;SDS011;8539;53.188;8.696;2023-06-22T09:49:35;9.07;;;6.20;;
16845;SDS011;8539;53.188;8.696;2023-06-22T09:52:09;7.18;;;5.22;;
16845;SDS011;8539;53.188;8.696;2023-06-22T09:54:36;5.90;;;4.68;;
16845;SDS011;8539;53.188;8.696;2023-06-22T09:57:02;5.30;;;3.90;;
16845;SDS011;8539;53.188;8.696;2023-06-22T09:59:29;9.23;;;4.43;;
16845;SDS011;8539;53.188;8.696;2023-06-22T10:01:55;5.72;;;4.28;;
16845;SDS011;8539;53.188;8.696;2023-06-22T10:04:21;6.47;;;3.70;;
16845;SDS011;8539;53.188;8.696;2023-06-22T10:06:47;6.50;;;3.95;;
16845;SDS011;8539;53.188;8.696;2023-06-22T10:09:13;5.47;;;3.95;;
16845;SDS011;8539;53.188;8.696;2023-06-22T10:11:39;6.97;;;5.28;;
16845;SDS011;8539;53.188;8.696;2023-06-22T10:14:05;4.88;;;4.47;;
16845;SDS011;8539;53.188;8.696;2023-06-22T10:16:32;13.55;;;5.53;;
16845;SDS011;8539;53.188;8.696;2023-06-22T10:18:58;5.90;;;4.55;;
16845;SDS011;8539;53.188;8.696;2023-06-22T10:21:24;5.18;;;4.68;;
16845;SDS011;8539;53.188;8.696;2023-06-22T10:23:52;8.07;;;6.07;;
16845;SDS011;8539;53.188;8.696;2023-06-22T10:26:18;7.63;;;6.25;;
16845;SDS011;8539;53.188;8.696;2023-06-22T10:28:44;6.00;;;5.43;;
16845;SDS011;8539;53.188;8.696;2023-06-22T10:31:11;6.70;;;5.88;;
16845;SDS011;8539;53.188;8.696;2023-06-22T10:33:37;11.90;;;6.55;;
16845;SDS011;8539;53.188;8.696;2023-06-22T10:36:03;6.75;;;5.15;;
16845;SDS011;8539;53.188;8.696;2023-06-22T10:38:30;7.38;;;5.30;;
16845;SDS011;8539;53.188;8.696;2023-06-22T10:40:58;6.25;;;5.68;;
16845;SDS011;8539;53.188;8.696;2023-06-22T10:43:24;6.65;;;5.95;;
16845;SDS011;8539;53.188;8.696;2023-06-22T10:45:50;8.10;;;6.47;;
16845;SDS011;8539;53.188;8.696;2023-06-22T10:48:17;7.63;;;5.95;;
16845;SDS011;8539;53.188;8.696;2023-06-22T10:50:43;6.75;;;6.00;;
16845;SDS011;8539;53.188;8.696;2023-06-22T10:53:09;8.60;;;5.70;;
16845;SDS011;8539;53.188;8.696;2023-06-22T10:55:35;6.82;;;5.78;;
16845;SDS011;8539;53.188;8.696;2023-06-22T10:58:01;7.90;;;5.60;;
16845;SDS011;8539;53.188;8.696;2023-06-22T11:00:27;8.43;;;5.38;;
16845;SDS011;8539;53.188;8.696;2023-06-22T11:02:53;9.73;;;7.50;;
16845;SDS011;8539;53.188;8.696;2023-06-22T11:05:20;8.52;;;5.57;;
16845;SDS011;8539;53.188;8.696;2023-06-22T11:07:46;5.90;;;4.72;;
16845;SDS011;8539;53.188;8.696;2023-06-22T11:10:13;7.68;;;6.97;;
16845;SDS011;8539;53.188;8.696;2023-06-22T11:12:39;8.85;;;6.05;;
16845;SDS011;8539;53.188;8.696;2023-06-22T11:15:05;6.88;;;6.00;;
16845;SDS011;8539;53.188;8.696;2023-06-22T11:17:32;7.70;;;5.72;;
16845;SDS011;8539;53.188;8.696;2023-06-22T11:19:59;7.65;;;6.38;;
16845;SDS011;8539;53.188;8.696;2023-06-22T11:22:26;15.32;;;6.82;;
16845;SDS011;8539;53.188;8.696;2023-06-22T11:24:52;7.00;;;6.15;;
16845;SDS011;8539;53.188;8.696;2023-06-22T11:27:18;8.35;;;5.35;;
16845;SDS011;8539;53.188;8.696;2023-06-22T11:29:45;7.25;;;6.38;;
16845;SDS011;8539;53.188;8.696;2023-06-22T11:32:11;7.10;;;5.57;;
16845;SDS011;8539;53.188;8.696;2023-06-22T11:34:37;12.82;;;5.50;;
16845;SDS011;8539;53.188;8.696;2023-06-22T11:37:03;7.38;;;5.85;;
16845;SDS011;8539;53.188;8.696;2023-06-22T11:39:30;7.15;;;6.45;;
16845;SDS011;8539;53.188;8.696;2023-06-22T11:41:56;6.45;;;5.47;;
16845;SDS011;8539;53.188;8.696;2023-06-22T11:44:23;5.72;;;5.13;;
16845;SDS011;8539;53.188;8.696;2023-06-22T11:46:49;6.80;;;6.20;;
16845;SDS011;8539;53.188;8.696;2023-06-22T11:49:15;8.85;;;7.95;;
16845;SDS011;8539;53.188;8.696;2023-06-22T11:51:41;6.95;;;5.75;;
16845;SDS011;8539;53.188;8.696;2023-06-22T11:54:07;8.00;;;5.53;;
16845;SDS011;8539;53.188;8.696;2023-06-22T11:56:36;8.95;;;6.45;;
16845;SDS011;8539;53.188;8.696;2023-06-22T11:59:02;7.65;;;5.30;;
16845;SDS011;8539;53.188;8.696;2023-06-22T12:01:28;8.32;;;6.05;;
16845;SDS011;8539;53.188;8.696;2023-06-22T12:03:54;6.18;;;5.07;;
16845;SDS011;8539;53.188;8.696;2023-06-22T12:06:21;8.27;;;5.65;;
16845;SDS011;8539;53.188;8.696;2023-06-22T12:08:47;7.80;;;5.38;;
16845;SDS011;8539;53.188;8.696;2023-06-22T12:11:13;5.40;;;4.90;;
16845;SDS011;8539;53.188;8.696;2023-06-22T12:13:39;6.20;;;5.43;;
16845;SDS011;8539;53.188;8.696;2023-06-22T12:16:05;5.43;;;4.85;;
16845;SDS011;8539;53.188;8.696;2023-06-22T12:18:32;7.05;;;5.00;;
16845;SDS011;8539;53.188;8.696;2023-06-22T12:20:58;5.63;;;5.10;;
16845;SDS011;8539;53.188;8.696;2023-06-22T12:23:24;6.65;;;5.30;;
16845;SDS011;8539;53.188;8.696;2023-06-22T12:25:51;5.53;;;4.95;;
16845;SDS011;8539;53.188;8.696;2023-06-22T12:28:17;5.18;;;4.68;;
16845;SDS011;8539;53.188;8.696;2023-06-22T12:30:43;7.30;;;5.43;;
16845;SDS011;8539;53.188;8.696;2023-06-22T12:33:09;6.80;;;5.55;;
16845;SDS011;8539;53.188;8.696;2023-06-22T12:35:35;5.13;;;4.70;;
16845;SDS011;8539;53.188;8.696;2023-06-22T12:38:02;7.28;;;5.80;;
16845;SDS011;8539;53.188;8.696;2023-06-22T12:40:29;5.18;;;4.65;;
16845;SDS011;8539;53.188;8.696;2023-06-22T12:42:55;5.93;;;4.60;;
16845;SDS011;8539;53.188;8.696;2023-06-22T12:45:21;5.07;;;4.60;;
16845;SDS011;8539;53.188;8.696;2023-06-22T12:47:47;5.57;;;4.47;;
16845;SDS011;8539;53.188;8.696;2023-06-22T12:50:15;6.93;;;4.53;;
16845;SDS011;8539;53.188;8.696;2023-06-22T12:52:41;5.60;;;4.60;;
16845;SDS011;8539;53.188;8.696;2023-06-22T12:55:08;5.75;;;5.07;;
16845;SDS011;8539;53.188;8.696;2023-06-22T12:57:35;6.88;;;5.85;;
16845;SDS011;8539;53.188;8.696;2023-06-22T13:00:01;5.78;;;5.18;;
16845;SDS011;8539;53.188;8.696;2023-06-22T13:02:29;6.25;;;5.65;;
16845;SDS011;8539;53.188;8.696;2023-06-22T13:04:55;4.65;;;4.13;;
16845;SDS011;8539;53.188;8.696;2023-06-22T13:07:22;5.45;;;4.50;;
16845;SDS011;8539;53.188;8.696;2023-06-22T13:09:48;6.45;;;5.00;;
16845;SDS011;8539;53.188;8.696;2023-06-22T13:12:18;6.97;;;4.25;;
16845;SDS011;8539;53.188;8.696;2023-06-22T13:14:45;7.45;;;5.75;;
16845;SDS011;8539;53.188;8.696;2023-06-22T13:17:12;5.25;;;4.75;;
16845;SDS011;8539;53.188;8.696;2023-06-22T13:19:39;5.97;;;5.47;;
16845;SDS011;8539;53.188;8.696;2023-06-22T13:22:09;6.20;;;4.68;;
16845;SDS011;8539;53.188;8.696;2023-06-22T13:25:06;6.78;;;4.60;;
16845;SDS011;8539;53.188;8.696;2023-06-22T13:27:32;5.93;;;4.70;;
16845;SDS011;8539;53.188;8.696;2023-06-22T13:29:58;7.03;;;4.78;;
16845;SDS011;8539;53.188;8.696;2023-06-22T13:32:25;5.40;;;4.90;;
16845;SDS011;8539;53.188;8.696;2023-06-22T13:34:52;7.75;;;5.18;;
16845;SDS011;8539;53.188;8.696;2023-06-22T13:37:19;7.32;;;4.90;;
16845;SDS011;8539;53.188;8.696;2023-06-22T13:39:45;5.80;;;4.97;;
16845;SDS011;8539;53.188;8.696;2023-06-22T13:42:13;6.85;;;5.63;;
16845;SDS011;8539;53.188;8.696;2023-06-22T13:44:39;5.68;;;5.00;;
16845;SDS011;8539;53.188;8.696;2023-06-22T13:47:08;5.28;;;4.63;;
16845;SDS011;8539;53.188;8.696;2023-06-22T13:49:35;5.82;;;5.25;;
16845;SDS011;8539;53.188;8.696;2023-06-22T13:52:01;7.80;;;5.82;;
16845;SDS011;8539;53.188;8.696;2023-06-22T13:54:28;6.13;;;4.85;;
16845;SDS011;8539;53.188;8.696;2023-06-22T13:57:00;6.13;;;5.53;;
16845;SDS011;8539;53.188;8.696;2023-06-22T13:59:31;5.70;;;5.10;;
16845;SDS011;8539;53.188;8.696;2023-06-22T14:02:00;6.75;;;5.20;;
16845;SDS011;8539;53.188;8.696;2023-06-22T14:04:26;6.07;;;5.47;;
16845;SDS011;8539;53.188;8.696;2023-06-22T14:06:54;5.72;;;4.85;;
16845;SDS011;8539;53.188;8.696;2023-06-22T14:09:39;7.72;;;5.65;;
16845;SDS011;8539;53.188;8.696;2023-06-22T14:12:22;6.30;;;5.30;;
16845;SDS011;8539;53.188;8.696;2023-06-22T14:14:51;6.78;;;6.13;;
16845;SDS011;8539;53.188;8.696;2023-06-22T14:17:25;7.00;;;6.32;;
16845;SDS011;8539;53.188;8.696;2023-06-22T14:20:12;7.32;;;6.63;;
16845;SDS011;8539;53.188;8.696;2023-06-22T14:22:41;6.95;;;6.35;;
16845;SDS011;8539;53.188;8.696;2023-06-22T14:25:33;6.43;;;5.43;;
16845;SDS011;8539;53.188;8.696;2023-06-22T14:28:02;6.45;;;5.50;;
16845;SDS011;8539;53.188;8.696;2023-06-22T14:30:29;6.65;;;5.93;;
16845;SDS011;8539;53.188;8.696;2023-06-22T14:33:01;8.57;;;6.25;;
16845;SDS011;8539;53.188;8.696;2023-06-22T14:35:40;6.53;;;5.72;;
16845;SDS011;8539;53.188;8.696;2023-06-22T14:38:15;6.93;;;5.72;;
16845;SDS011;8539;53.188;8.696;2023-06-22T14:40:41;5.90;;;5.13;;
16845;SDS011;8539;53.188;8.696;2023-06-22T14:43:07;8.48;;;5.28;;
16845;SDS011;8539;53.188;8.696;2023-06-22T14:45:40;9.55;;;7.18;;
16845;SDS011;8539;53.188;8.696;2023-06-22T14:48:06;6.15;;;5.55;;
16845;SDS011;8539;53.188;8.696;2023-06-22T14:50:32;5.60;;;5.10;;
16845;SDS011;8539;53.188;8.696;2023-06-22T14:52:58;5.97;;;5.38;;
16845;SDS011;8539;53.188;8.696;2023-06-22T14:55:25;6.85;;;6.20;;
16845;SDS011;8539;53.188;8.696;2023-06-22T14:57:52;8.82;;;7.05;;
16845;SDS011;8539;53.188;8.696;2023-06-22T15:00:18;6.20;;;5.18;;
16845;SDS011;8539;53.188;8.696;2023-06-22T15:02:44;8.18;;;6.70;;
16845;SDS011;8539;53.188;8.696;2023-06-22T15:05:13;8.27;;;5.90;;
16845;SDS011;8539;53.188;8.696;2023-06-22T15:07:45;7.18;;;6.30;;
16845;SDS011;8539;53.188;8.696;2023-06-22T15:10:11;7.18;;;6.30;;
16845;SDS011;8539;53.188;8.696;2023-06-22T15:12:37;10.68;;;6.95;;
16845;SDS011;8539;53.188;8.696;2023-06-22T15:15:06;6.75;;;6.13;;
16845;SDS011;8539;53.188;8.696;2023-06-22T15:20:18;8.05;;;7.28;;
16845;SDS011;8539;53.188;8.696;2023-06-22T15:22:44;11.65;;;7.22;;
16845;SDS011;8539;53.188;8.696;2023-06-22T15:25:20;11.30;;;7.90;;
16845;SDS011;8539;53.188;8.696;2023-06-22T15:27:55;10.82;;;7.53;;
16845;SDS011;8539;53.188;8.696;2023-06-22T15:30:22;9.20;;;7.37;;
16845;SDS011;8539;53.188;8.696;2023-06-22T15:32:51;8.15;;;7.35;;
16845;SDS011;8539;53.188;8.696;2023-06-22T15:35:25;12.27;;;8.00;;
16845;SDS011;8539;53.188;8.696;2023-06-22T15:37:52;9.15;;;7.05;;
16845;SDS011;8539;53.188;8.696;2023-06-22T15:40:21;8.13;;;6.90;;
16845;SDS011;8539;53.188;8.696;2023-06-22T15:42:49;6.90;;;6.20;;
16845;SDS011;8539;53.188;8.696;2023-06-22T15:45:15;8.57;;;6.75;;
16845;SDS011;8539;53.188;8.696;2023-06-22T15:47:42;8.70;;;7.15;;
16845;SDS011;8539;53.188;8.696;2023-06-22T15:50:08;7.45;;;6.50;;
16845;SDS011;8539;53.188;8.696;2023-06-22T15:52:35;8.13;;;6.30;;
16845;SDS011;8539;53.188;8.696;2023-06-22T15:55:04;8.32;;;7.53;;
16845;SDS011;8539;53.188;8.696;2023-06-22T15:57:30;8.02;;;7.22;;
16845;SDS011;8539;53.188;8.696;2023-06-22T15:59:56;12.15;;;8.15;;
16845;SDS011;8539;53.188;8.696;2023-06-22T16:02:22;8.77;;;7.85;;
16845;SDS011;8539;53.188;8.696;2023-06-22T16:05:23;8.32;;;7.22;;
16845;SDS011;8539;53.188;8.696;2023-06-22T16:07:55;9.07;;;8.18;;